sensor_id;sensor_type;location;lat;lon;timestamp;pressure;altitude;pressure_sealevel;temperature;humidity
79791;BME280;69278;52.220;5.172;2023-07-13T00:02:02;101339.50;;;19.10;67.63
79791;BME280;69278;52.220;5.172;2023-07-13T00:04:28;101346.22;;;19.21;67.50
79791;BME280;69278;52.220;5.172;2023-07-13T00:06:59;101349.09;;;19.19;67.63
79791;BME280;69278;52.220;5.172;2023-07-13T00:09:26;101352.94;;;19.17;67.83
79791;BME280;69278;52.220;5.172;2023-07-13T00:11:56;101352.47;;;19.13;67.73
79791;BME280;69278;52.220;5.172;2023-07-13T00:14:24;101356.16;;;19.12;67.79
79791;BME280;69278;52.220;5.172;2023-07-13T00:16:51;101350.47;;;19.15;67.79
79791;BME280;69278;52.220;5.172;2023-07-13T00:19:18;101354.78;;;19.16;67.77
79791;BME280;69278;52.220;5.172;2023-07-13T00:21:44;101358.28;;;19.17;67.80
79791;BME280;69278;52.220;5.172;2023-07-13T00:24:13;101356.59;;;19.16;67.77
79791;BME280;69278;52.220;5.172;2023-07-13T00:26:40;101345.13;;;19.15;67.72
79791;BME280;69278;52.220;5.172;2023-07-13T00:29:06;101334.00;;;19.04;67.59
79791;BME280;69278;52.220;5.172;2023-07-13T00:31:35;101329.69;;;19.03;67.66
79791;BME280;69278;52.220;5.172;2023-07-13T00:34:03;101347.84;;;19.07;67.89
79791;BME280;69278;52.220;5.172;2023-07-13T00:36:30;101352.13;;;19.39;67.66
79791;BME280;69278;52.220;5.172;2023-07-13T00:38:57;101358.72;;;19.66;66.83
79791;BME280;69278;52.220;5.172;2023-07-13T00:41:23;101350.78;;;19.87;66.51
79791;BME280;69278;52.220;5.172;2023-07-13T00:43:49;101339.09;;;20.03;65.86
79791;BME280;69278;52.220;5.172;2023-07-13T00:46:28;101338.97;;;20.11;65.55
79791;BME280;69278;52.220;5.172;2023-07-13T00:48:59;101326.06;;;20.14;65.02
79791;BME280;69278;52.220;5.172;2023-07-13T00:51:31;101295.00;;;19.99;64.76
79791;BME280;69278;52.220;5.172;2023-07-13T00:54:02;101338.19;;;20.25;64.66
79791;BME280;69278;52.220;5.172;2023-07-13T00:56:30;101332.91;;;20.31;64.58
79791;BME280;69278;52.220;5.172;2023-07-13T00:58:57;101337.47;;;20.37;64.35
79791;BME280;69278;52.220;5.172;2023-07-13T01:01:26;101324.66;;;20.33;63.93
79791;BME280;69278;52.220;5.172;2023-07-13T01:03:53;101331.13;;;20.38;63.87
79791;BME280;69278;52.220;5.172;2023-07-13T01:06:20;101343.09;;;20.42;63.82
79791;BME280;69278;52.220;5.172;2023-07-13T01:08:47;101337.13;;;20.40;63.60
79791;BME280;69278;52.220;5.172;2023-07-13T01:11:18;101349.75;;;20.46;63.20
79791;BME280;69278;52.220;5.172;2023-07-13T01:13:45;101356.09;;;20.45;63.57
79791;BME280;69278;52.220;5.172;2023-07-13T01:16:15;101352.44;;;20.46;63.24
79791;BME280;69278;52.220;5.172;2023-07-13T01:18:44;101341.72;;;20.46;63.18
79791;BME280;69278;52.220;5.172;2023-07-13T01:21:10;101350.38;;;20.48;62.97
79791;BME280;69278;52.220;5.172;2023-07-13T01:23:37;101336.09;;;20.41;62.98
79791;BME280;69278;52.220;5.172;2023-07-13T01:26:03;101345.88;;;20.49;62.70
79791;BME280;69278;52.220;5.172;2023-07-13T01:28:30;101347.88;;;20.47;62.65
79791;BME280;69278;52.220;5.172;2023-07-13T01:30:58;101338.88;;;20.33;62.42
79791;BME280;69278;52.220;5.172;2023-07-13T01:33:25;101344.22;;;20.33;62.67
79791;BME280;69278;52.220;5.172;2023-07-13T01:35:52;101352.06;;;20.35;62.42
79791;BME280;69278;52.220;5.172;2023-07-13T01:38:21;101357.69;;;20.40;62.67
79791;BME280;69278;52.220;5.172;2023-07-13T01:40:48;101356.84;;;20.39;62.72
79791;BME280;69278;52.220;5.172;2023-07-13T01:43:14;101350.59;;;20.32;62.74
79791;BME280;69278;52.220;5.172;2023-07-13T01:45:40;101363.44;;;20.37;62.59
79791;BME280;69278;52.220;5.172;2023-07-13T01:48:11;101362.59;;;20.36;62.71
79791;BME280;69278;52.220;5.172;2023-07-13T01:50:38;101363.03;;;20.40;62.61
79791;BME280;69278;52.220;5.172;2023-07-13T01:53:06;101358.50;;;20.40;62.71
79791;BME280;69278;52.220;5.172;2023-07-13T01:55:33;101343.59;;;20.31;62.77
79791;BME280;69278;52.220;5.172;2023-07-13T01:58:01;101363.88;;;20.40;62.69
79791;BME280;69278;52.220;5.172;2023-07-13T02:00:27;101369.84;;;20.42;62.66
79791;BME280;69278;52.220;5.172;2023-07-13T02:02:54;101364.69;;;20.41;62.56
79791;BME280;69278;52.220;5.172;2023-07-13T02:05:20;101361.38;;;20.39;62.68
79791;BME280;69278;52.220;5.172;2023-07-13T02:07:47;101366.09;;;20.37;62.75
79791;BME280;69278;52.220;5.172;2023-07-13T02:10:14;101364.88;;;20.39;62.85
79791;BME280;69278;52.220;5.172;2023-07-13T02:12:41;101364.22;;;20.37;62.76
79791;BME280;69278;52.220;5.172;2023-07-13T02:15:08;101369.59;;;20.37;62.90
79791;BME280;69278;52.220;5.172;2023-07-13T02:17:35;101363.59;;;20.35;62.88
79791;BME280;69278;52.220;5.172;2023-07-13T02:20:03;101371.34;;;20.30;63.00
79791;BME280;69278;52.220;5.172;2023-07-13T02:22:30;101386.13;;;20.26;63.13
79791;BME280;69278;52.220;5.172;2023-07-13T02:24:57;101356.88;;;20.10;63.35
79791;BME280;69278;52.220;5.172;2023-07-13T02:27:23;101380.56;;;20.13;63.43
79791;BME280;69278;52.220;5.172;2023-07-13T02:29:50;101364.78;;;20.04;63.59
79791;BME280;69278;52.220;5.172;2023-07-13T02:32:18;101389.63;;;20.12;63.75
79791;BME280;69278;52.220;5.172;2023-07-13T02:34:44;101373.94;;;20.09;63.69
79791;BME280;69278;52.220;5.172;2023-07-13T02:37:11;101361.69;;;20.00;63.80
79791;BME280;69278;52.220;5.172;2023-07-13T02:39:38;101377.72;;;20.15;63.86
79791;BME280;69278;52.220;5.172;2023-07-13T02:42:05;101387.56;;;20.14;63.76
79791;BME280;69278;52.220;5.172;2023-07-13T02:44:31;101377.25;;;20.11;63.84
79791;BME280;69278;52.220;5.172;2023-07-13T02:46:58;101387.56;;;20.14;63.87
79791;BME280;69278;52.220;5.172;2023-07-13T02:49:24;101367.84;;;20.01;63.71
79791;BME280;69278;52.220;5.172;2023-07-13T02:51:51;101379.06;;;20.11;63.86
79791;BME280;69278;52.220;5.172;2023-07-13T02:54:17;101382.94;;;20.08;64.06
79791;BME280;69278;52.220;5.172;2023-07-13T02:56:44;101381.94;;;20.09;63.94
79791;BME280;69278;52.220;5.172;2023-07-13T02:59:10;101380.28;;;20.08;63.88
79791;BME280;69278;52.220;5.172;2023-07-13T03:01:37;101388.41;;;20.00;64.08
79791;BME280;69278;52.220;5.172;2023-07-13T03:04:04;101380.19;;;20.02;64.11
79791;BME280;69278;52.220;5.172;2023-07-13T03:06:31;101382.22;;;20.00;64.36
79791;BME280;69278;52.220;5.172;2023-07-13T03:08:58;101386.75;;;19.99;64.23
79791;BME280;69278;52.220;5.172;2023-07-13T03:11:26;101378.72;;;19.99;64.26
79791;BME280;69278;52.220;5.172;2023-07-13T03:13:52;101366.63;;;19.88;64.27
79791;BME280;69278;52.220;5.172;2023-07-13T03:16:19;101386.09;;;19.97;64.01
79791;BME280;69278;52.220;5.172;2023-07-13T03:18:47;101389.25;;;20.01;64.12
79791;BME280;69278;52.220;5.172;2023-07-13T03:21:14;101383.78;;;19.94;64.08
79791;BME280;69278;52.220;5.172;2023-07-13T03:23:40;101386.38;;;20.02;64.02
79791;BME280;69278;52.220;5.172;2023-07-13T03:26:14;101374.66;;;19.88;64.03
79791;BME280;69278;52.220;5.172;2023-07-13T03:28:41;101381.13;;;19.94;64.04
79791;BME280;69278;52.220;5.172;2023-07-13T03:31:10;101388.41;;;20.00;64.21
79791;BME280;69278;52.220;5.172;2023-07-13T03:33:37;101373.09;;;19.94;63.94
79791;BME280;69278;52.220;5.172;2023-07-13T03:36:05;101400.31;;;20.12;63.95
79791;BME280;69278;52.220;5.172;2023-07-13T03:38:32;101396.44;;;20.15;63.83
79791;BME280;69278;52.220;5.172;2023-07-13T03:40:58;101407.22;;;20.21;63.76
79791;BME280;69278;52.220;5.172;2023-07-13T03:43:25;101400.19;;;20.20;63.56
79791;BME280;69278;52.220;5.172;2023-07-13T03:45:52;101407.22;;;20.21;63.70
79791;BME280;69278;52.220;5.172;2023-07-13T03:48:18;101403.00;;;20.27;63.65
79791;BME280;69278;52.220;5.172;2023-07-13T03:50:45;101409.44;;;20.32;63.41
79791;BME280;69278;52.220;5.172;2023-07-13T03:53:11;101410.13;;;20.34;63.35
79791;BME280;69278;52.220;5.172;2023-07-13T03:55:37;101401.81;;;20.29;63.44
79791;BME280;69278;52.220;5.172;2023-07-13T03:58:25;101373.28;;;20.07;63.42
79791;BME280;69278;52.220;5.172;2023-07-13T04:00:53;101409.44;;;20.32;63.51
79791;BME280;69278;52.220;5.172;2023-07-13T04:03:20;101409.84;;;20.29;63.63
79791;BME280;69278;52.220;5.172;2023-07-13T04:05:47;101417.84;;;20.29;63.46
79791;BME280;69278;52.220;5.172;2023-07-13T04:08:13;101424.41;;;20.27;63.57
79791;BME280;69278;52.220;5.172;2023-07-13T04:10:40;101426.44;;;20.25;63.65
79791;BME280;69278;52.220;5.172;2023-07-13T04:13:06;101421.25;;;20.23;63.75
79791;BME280;69278;52.220;5.172;2023-07-13T04:15:33;101426.13;;;20.20;63.79
79791;BME280;69278;52.220;5.172;2023-07-13T04:17:59;101431.97;;;20.23;63.68
79791;BME280;69278;52.220;5.172;2023-07-13T04:20:26;101433.63;;;20.24;63.74
79791;BME280;69278;52.220;5.172;2023-07-13T04:22:52;101431.59;;;20.26;63.67
79791;BME280;69278;52.220;5.172;2023-07-13T04:25:22;101422.44;;;20.21;63.54
79791;BME280;69278;52.220;5.172;2023-07-13T04:27:49;101427.25;;;20.25;63.50
79791;BME280;69278;52.220;5.172;2023-07-13T04:30:16;101424.09;;;20.22;63.62
79791;BME280;69278;52.220;5.172;2023-07-13T04:32:43;101409.97;;;20.13;63.57
79791;BME280;69278;52.220;5.172;2023-07-13T04:35:09;101432.59;;;20.25;63.57
79791;BME280;69278;52.220;5.172;2023-07-13T04:37:35;101426.94;;;20.20;63.52
79791;BME280;69278;52.220;5.172;2023-07-13T04:40:02;101434.47;;;20.25;63.58
79791;BME280;69278;52.220;5.172;2023-07-13T04:42:30;101427.78;;;20.21;63.66
79791;BME280;69278;52.220;5.172;2023-07-13T04:44:56;101406.56;;;20.05;63.58
79791;BME280;69278;52.220;5.172;2023-07-13T04:47:22;101448.66;;;20.25;63.76
79791;BME280;69278;52.220;5.172;2023-07-13T04:49:49;101425.94;;;20.07;63.90
79791;BME280;69278;52.220;5.172;2023-07-13T04:52:15;101444.28;;;20.10;64.21
79791;BME280;69278;52.220;5.172;2023-07-13T04:54:42;101433.94;;;20.07;64.36
79791;BME280;69278;52.220;5.172;2023-07-13T04:57:08;101452.66;;;20.07;64.39
79791;BME280;69278;52.220;5.172;2023-07-13T04:59:35;101452.97;;;20.12;64.47
79791;BME280;69278;52.220;5.172;2023-07-13T05:02:01;101437.47;;;20.07;64.51
79791;BME280;69278;52.220;5.172;2023-07-13T05:04:28;101451.47;;;20.09;64.75
79791;BME280;69278;52.220;5.172;2023-07-13T05:06:54;101455.16;;;20.08;64.97
79791;BME280;69278;52.220;5.172;2023-07-13T05:09:21;101455.16;;;20.08;64.99
79791;BME280;69278;52.220;5.172;2023-07-13T05:11:47;101450.19;;;20.05;65.10
79791;BME280;69278;52.220;5.172;2023-07-13T05:14:14;101456.81;;;20.09;64.94
79791;BME280;69278;52.220;5.172;2023-07-13T05:16:41;101461.97;;;20.11;65.15
79791;BME280;69278;52.220;5.172;2023-07-13T05:19:09;101454.50;;;20.06;65.08
79791;BME280;69278;52.220;5.172;2023-07-13T05:21:36;101474.63;;;20.17;65.22
79791;BME280;69278;52.220;5.172;2023-07-13T05:24:02;101468.44;;;20.16;65.34
79791;BME280;69278;52.220;5.172;2023-07-13T05:26:48;101477.03;;;20.12;65.39
79791;BME280;69278;52.220;5.172;2023-07-13T05:29:15;101478.50;;;20.14;65.35
79791;BME280;69278;52.220;5.172;2023-07-13T05:31:41;101464.56;;;20.04;65.69
79791;BME280;69278;52.220;5.172;2023-07-13T05:34:08;101480.41;;;20.06;65.90
79791;BME280;69278;52.220;5.172;2023-07-13T05:36:34;101482.19;;;20.13;65.72
79791;BME280;69278;52.220;5.172;2023-07-13T05:39:03;101480.34;;;20.14;65.79
79791;BME280;69278;52.220;5.172;2023-07-13T05:41:30;101466.25;;;20.05;65.78
79791;BME280;69278;52.220;5.172;2023-07-13T05:43:56;101489.00;;;20.16;66.39
79791;BME280;69278;52.220;5.172;2023-07-13T05:46:22;101489.19;;;20.14;66.22
79791;BME280;69278;52.220;5.172;2023-07-13T05:48:49;101483.50;;;20.17;66.07
79791;BME280;69278;52.220;5.172;2023-07-13T05:51:16;101466.69;;;20.09;66.13
79791;BME280;69278;52.220;5.172;2023-07-13T05:53:42;101491.97;;;20.21;66.25
79791;BME280;69278;52.220;5.172;2023-07-13T05:56:09;101491.44;;;20.25;66.05
79791;BME280;69278;52.220;5.172;2023-07-13T05:58:36;101504.28;;;20.30;66.14
79791;BME280;69278;52.220;5.172;2023-07-13T06:01:08;101486.63;;;20.21;66.10
79791;BME280;69278;52.220;5.172;2023-07-13T06:03:37;101501.72;;;20.36;65.79
79791;BME280;69278;52.220;5.172;2023-07-13T06:06:07;101503.91;;;20.47;65.60
79791;BME280;69278;52.220;5.172;2023-07-13T06:08:35;101496.53;;;20.49;65.72
79791;BME280;69278;52.220;5.172;2023-07-13T06:11:16;101505.47;;;20.57;65.66
79791;BME280;69278;52.220;5.172;2023-07-13T06:13:42;101510.66;;;20.58;65.77
79791;BME280;69278;52.220;5.172;2023-07-13T06:16:10;101498.75;;;20.46;65.66
79791;BME280;69278;52.220;5.172;2023-07-13T06:18:37;101513.91;;;20.54;65.58
79791;BME280;69278;52.220;5.172;2023-07-13T06:21:12;101513.63;;;20.48;65.74
79791;BME280;69278;52.220;5.172;2023-07-13T06:23:39;101512.13;;;20.46;65.92
79791;BME280;69278;52.220;5.172;2023-07-13T06:26:06;101526.59;;;20.51;66.31
79791;BME280;69278;52.220;5.172;2023-07-13T06:28:34;101512.78;;;20.33;66.68
79791;BME280;69278;52.220;5.172;2023-07-13T06:31:01;101513.69;;;20.26;67.40
79791;BME280;69278;52.220;5.172;2023-07-13T06:33:28;101495.72;;;19.97;68.35
79791;BME280;69278;52.220;5.172;2023-07-13T06:35:55;101518.09;;;19.96;68.45
79791;BME280;69278;52.220;5.172;2023-07-13T06:38:21;101512.56;;;19.83;69.12
79791;BME280;69278;52.220;5.172;2023-07-13T06:40:48;101512.13;;;19.94;68.82
79791;BME280;69278;52.220;5.172;2023-07-13T06:43:14;101509.19;;;20.04;68.60
79791;BME280;69278;52.220;5.172;2023-07-13T06:45:45;101520.94;;;20.17;68.28
79791;BME280;69278;52.220;5.172;2023-07-13T06:48:14;101527.53;;;20.29;68.02
79791;BME280;69278;52.220;5.172;2023-07-13T06:50:41;101530.75;;;20.39;67.72
79791;BME280;69278;52.220;5.172;2023-07-13T06:53:09;101522.94;;;20.52;67.31
79791;BME280;69278;52.220;5.172;2023-07-13T06:55:35;101519.13;;;20.47;67.50
79791;BME280;69278;52.220;5.172;2023-07-13T06:58:02;101548.19;;;20.35;69.75
79791;BME280;69278;52.220;5.172;2023-07-13T07:00:29;101545.38;;;20.14;71.83
79791;BME280;69278;52.220;5.172;2023-07-13T07:02:55;101573.25;;;19.97;72.08
79791;BME280;69278;52.220;5.172;2023-07-13T07:05:22;101558.63;;;19.62;72.63
79791;BME280;69278;52.220;5.172;2023-07-13T07:07:53;101539.03;;;19.16;72.23
79791;BME280;69278;52.220;5.172;2023-07-13T07:10:21;101529.00;;;18.88;72.38
79791;BME280;69278;52.220;5.172;2023-07-13T07:12:47;101565.19;;;18.82;72.81
79791;BME280;69278;52.220;5.172;2023-07-13T07:15:14;101578.41;;;18.68;74.50
79791;BME280;69278;52.220;5.172;2023-07-13T07:17:41;101583.63;;;18.53;75.07
79791;BME280;69278;52.220;5.172;2023-07-13T07:20:08;101578.63;;;18.42;74.97
79791;BME280;69278;52.220;5.172;2023-07-13T07:22:34;101577.13;;;18.31;74.50
79791;BME280;69278;52.220;5.172;2023-07-13T07:25:01;101575.66;;;18.21;74.10
79791;BME280;69278;52.220;5.172;2023-07-13T07:27:28;101588.31;;;18.11;74.31
79791;BME280;69278;52.220;5.172;2023-07-13T07:29:57;101555.31;;;17.96;74.50
79791;BME280;69278;52.220;5.172;2023-07-13T07:32:29;101580.28;;;18.27;73.85
79791;BME280;69278;52.220;5.172;2023-07-13T07:35:15;101578.66;;;18.26;73.51
79791;BME280;69278;52.220;5.172;2023-07-13T07:37:42;101570.28;;;18.29;74.46
79791;BME280;69278;52.220;5.172;2023-07-13T07:40:11;101562.00;;;18.24;74.06
79791;BME280;69278;52.220;5.172;2023-07-13T07:42:41;101566.44;;;18.31;74.07
79791;BME280;69278;52.220;5.172;2023-07-13T07:45:07;101523.69;;;18.01;74.45
79791;BME280;69278;52.220;5.172;2023-07-13T07:47:34;101567.97;;;18.26;75.12
79791;BME280;69278;52.220;5.172;2023-07-13T07:50:00;101557.31;;;18.18;75.40
79791;BME280;69278;52.220;5.172;2023-07-13T07:52:27;101557.13;;;18.27;75.52
79791;BME280;69278;52.220;5.172;2023-07-13T07:54:53;101561.63;;;18.35;76.00
79791;BME280;69278;52.220;5.172;2023-07-13T07:57:23;101581.47;;;18.48;76.09
79791;BME280;69278;52.220;5.172;2023-07-13T07:59:52;101573.28;;;18.58;76.78
79791;BME280;69278;52.220;5.172;2023-07-13T08:02:21;101574.09;;;18.67;76.72
79791;BME280;69278;52.220;5.172;2023-07-13T08:04:51;101564.75;;;18.71;77.26
79791;BME280;69278;52.220;5.172;2023-07-13T08:07:21;101567.88;;;18.82;77.00
79791;BME280;69278;52.220;5.172;2023-07-13T08:09:48;101565.84;;;18.92;76.93
79791;BME280;69278;52.220;5.172;2023-07-13T08:12:18;101553.31;;;18.93;77.11
79791;BME280;69278;52.220;5.172;2023-07-13T08:15:06;101543.28;;;19.03;77.17
79791;BME280;69278;52.220;5.172;2023-07-13T08:17:35;101563.50;;;19.28;76.81
79791;BME280;69278;52.220;5.172;2023-07-13T08:20:02;101550.44;;;19.33;76.54
79791;BME280;69278;52.220;5.172;2023-07-13T08:22:29;101559.09;;;19.43;76.24
79791;BME280;69278;52.220;5.172;2023-07-13T08:24:55;101565.16;;;19.37;76.63
79791;BME280;69278;52.220;5.172;2023-07-13T08:27:24;101540.38;;;19.12;77.10
79791;BME280;69278;52.220;5.172;2023-07-13T08:29:51;101557.66;;;19.33;76.89
79791;BME280;69278;52.220;5.172;2023-07-13T08:32:20;101533.75;;;19.08;77.80
79791;BME280;69278;52.220;5.172;2023-07-13T08:34:47;101557.00;;;18.92;76.61
79791;BME280;69278;52.220;5.172;2023-07-13T08:37:14;101587.91;;;18.86;74.95
79791;BME280;69278;52.220;5.172;2023-07-13T08:39:41;101593.28;;;18.62;73.43
79791;BME280;69278;52.220;5.172;2023-07-13T08:42:23;101600.78;;;18.50;73.73
79791;BME280;69278;52.220;5.172;2023-07-13T08:47:45;101546.97;;;18.15;74.97
79791;BME280;69278;52.220;5.172;2023-07-13T08:50:15;101552.97;;;18.17;75.78
79791;BME280;69278;52.220;5.172;2023-07-13T08:52:43;101591.13;;;18.41;75.97
79791;BME280;69278;52.220;5.172;2023-07-13T08:55:21;101570.81;;;18.32;76.36
79791;BME280;69278;52.220;5.172;2023-07-13T08:57:54;101565.78;;;18.37;76.68
79791;BME280;69278;52.220;5.172;2023-07-13T09:00:32;101540.28;;;18.35;76.89
79791;BME280;69278;52.220;5.172;2023-07-13T09:03:02;101591.09;;;18.74;76.56
79791;BME280;69278;52.220;5.172;2023-07-13T09:05:38;101549.63;;;18.47;76.24
79791;BME280;69278;52.220;5.172;2023-07-13T09:10:46;101595.78;;;18.72;75.28
79791;BME280;69278;52.220;5.172;2023-07-13T09:13:33;101588.75;;;18.79;75.56
79791;BME280;69278;52.220;5.172;2023-07-13T09:16:03;101569.88;;;18.80;75.35
79791;BME280;69278;52.220;5.172;2023-07-13T09:18:36;101594.47;;;19.06;75.99
79791;BME280;69278;52.220;5.172;2023-07-13T09:21:09;101595.59;;;19.20;76.23
79791;BME280;69278;52.220;5.172;2023-07-13T09:23:37;101598.75;;;19.23;75.88
79791;BME280;69278;52.220;5.172;2023-07-13T09:29:10;101592.00;;;19.36;75.98
79791;BME280;69278;52.220;5.172;2023-07-13T09:31:38;101612.63;;;19.58;75.41
79791;BME280;69278;52.220;5.172;2023-07-13T09:34:10;101623.44;;;19.64;74.62
79791;BME280;69278;52.220;5.172;2023-07-13T09:36:37;101609.13;;;19.80;74.98
79791;BME280;69278;52.220;5.172;2023-07-13T09:39:14;101610.28;;;19.85;74.78
79791;BME280;69278;52.220;5.172;2023-07-13T09:41:48;101593.34;;;19.93;74.98
79791;BME280;69278;52.220;5.172;2023-07-13T09:44:27;101604.56;;;20.11;74.89
79791;BME280;69278;52.220;5.172;2023-07-13T09:46:57;101577.22;;;20.01;74.99
79791;BME280;69278;52.220;5.172;2023-07-13T09:49:25;101582.72;;;20.08;74.80
79791;BME280;69278;52.220;5.172;2023-07-13T09:52:00;101604.66;;;20.18;75.01
79791;BME280;69278;52.220;5.172;2023-07-13T09:54:27;101594.88;;;20.10;74.28
79791;BME280;69278;52.220;5.172;2023-07-13T09:56:58;101595.25;;;20.07;75.10
79791;BME280;69278;52.220;5.172;2023-07-13T09:59:41;101611.44;;;20.06;72.95
79791;BME280;69278;52.220;5.172;2023-07-13T10:02:30;101613.84;;;20.01;73.65
79791;BME280;69278;52.220;5.172;2023-07-13T10:05:01;101616.34;;;20.02;73.37
79791;BME280;69278;52.220;5.172;2023-07-13T10:07:31;101617.19;;;20.03;72.84
79791;BME280;69278;52.220;5.172;2023-07-13T10:10:00;101606.47;;;20.03;71.63
79791;BME280;69278;52.220;5.172;2023-07-13T10:12:35;101612.47;;;20.05;69.16
79791;BME280;69278;52.220;5.172;2023-07-13T10:15:03;101613.13;;;20.07;70.21
79791;BME280;69278;52.220;5.172;2023-07-13T10:17:51;101581.66;;;19.71;68.01
79791;BME280;69278;52.220;5.172;2023-07-13T10:20:20;101620.75;;;19.95;68.10
79791;BME280;69278;52.220;5.172;2023-07-13T10:22:58;101624.28;;;19.88;67.58
79791;BME280;69278;52.220;5.172;2023-07-13T10:25:31;101625.19;;;19.80;66.99
79791;BME280;69278;52.220;5.172;2023-07-13T10:28:03;101646.38;;;19.81;68.20
79791;BME280;69278;52.220;5.172;2023-07-13T10:30:34;101625.53;;;19.77;69.19
79791;BME280;69278;52.220;5.172;2023-07-13T10:33:04;101621.84;;;19.78;68.33
79791;BME280;69278;52.220;5.172;2023-07-13T10:35:35;101623.22;;;19.74;67.41
79791;BME280;69278;52.220;5.172;2023-07-13T10:38:18;101637.97;;;19.93;68.45
79791;BME280;69278;52.220;5.172;2023-07-13T10:40:56;101589.78;;;19.78;67.83
79791;BME280;69278;52.220;5.172;2023-07-13T10:43:36;101644.03;;;20.09;66.66
79791;BME280;69278;52.220;5.172;2023-07-13T10:46:11;101640.94;;;19.98;66.36
79791;BME280;69278;52.220;5.172;2023-07-13T10:48:40;101655.66;;;19.94;66.14
79791;BME280;69278;52.220;5.172;2023-07-13T10:51:09;101654.00;;;19.93;66.93
79791;BME280;69278;52.220;5.172;2023-07-13T10:53:38;101651.56;;;19.83;67.09
79791;BME280;69278;52.220;5.172;2023-07-13T10:56:28;101646.25;;;19.75;69.16
79791;BME280;69278;52.220;5.172;2023-07-13T10:59:25;101661.22;;;19.84;68.47
79791;BME280;69278;52.220;5.172;2023-07-13T11:01:54;101653.16;;;19.92;68.51
79791;BME280;69278;52.220;5.172;2023-07-13T11:04:23;101654.66;;;20.17;66.99
79791;BME280;69278;52.220;5.172;2023-07-13T11:06:57;101620.31;;;20.06;67.21
79791;BME280;69278;52.220;5.172;2023-07-13T11:15:05;101668.91;;;20.55;64.17
79791;BME280;69278;52.220;5.172;2023-07-13T11:17:37;101638.75;;;20.24;63.46
79791;BME280;69278;52.220;5.172;2023-07-13T11:20:21;101680.47;;;20.56;63.14
79791;BME280;69278;52.220;5.172;2023-07-13T11:22:50;101688.03;;;20.67;62.67
79791;BME280;69278;52.220;5.172;2023-07-13T11:30:37;101680.41;;;20.93;61.01
79791;BME280;69278;52.220;5.172;2023-07-13T11:33:19;101672.91;;;21.26;60.16
79791;BME280;69278;52.220;5.172;2023-07-13T11:35:57;101677.22;;;21.27;57.09
79791;BME280;69278;52.220;5.172;2023-07-13T11:38:35;101679.25;;;21.54;57.97
79791;BME280;69278;52.220;5.172;2023-07-13T11:41:14;101671.31;;;21.60;58.99
79791;BME280;69278;52.220;5.172;2023-07-13T11:43:43;101660.06;;;21.71;58.59
79791;BME280;69278;52.220;5.172;2023-07-13T11:46:15;101678.91;;;21.93;59.48
79791;BME280;69278;52.220;5.172;2023-07-13T11:48:44;101688.00;;;21.77;55.80
79791;BME280;69278;52.220;5.172;2023-07-13T11:51:19;101674.09;;;21.88;56.99
79791;BME280;69278;52.220;5.172;2023-07-13T11:53:48;101653.69;;;21.87;56.74
79791;BME280;69278;52.220;5.172;2023-07-13T11:56:16;101673.16;;;21.96;55.86
79791;BME280;69278;52.220;5.172;2023-07-13T11:58:44;101681.47;;;22.01;56.45
79791;BME280;69278;52.220;5.172;2023-07-13T12:01:28;101683.94;;;22.02;54.15
79791;BME280;69278;52.220;5.172;2023-07-13T12:04:03;101676.69;;;22.17;56.12
79791;BME280;69278;52.220;5.172;2023-07-13T12:06:32;101668.56;;;22.32;56.08
79791;BME280;69278;52.220;5.172;2023-07-13T12:09:01;101678.13;;;22.41;54.92
79791;BME280;69278;52.220;5.172;2023-07-13T12:11:30;101659.97;;;22.43;54.80
79791;BME280;69278;52.220;5.172;2023-07-13T12:13:57;101670.22;;;22.54;54.32
79791;BME280;69278;52.220;5.172;2023-07-13T12:16:29;101645.47;;;22.59;54.30
79791;BME280;69278;52.220;5.172;2023-07-13T12:19:01;101665.97;;;22.94;53.04
79791;BME280;69278;52.220;5.172;2023-07-13T12:21:38;101667.50;;;23.03;51.77
79791;BME280;69278;52.220;5.172;2023-07-13T12:24:14;101677.66;;;23.07;52.80
79791;BME280;69278;52.220;5.172;2023-07-13T12:26:41;101681.22;;;23.21;51.70
79791;BME280;69278;52.220;5.172;2023-07-13T12:29:08;101671.97;;;23.30;51.58
79791;BME280;69278;52.220;5.172;2023-07-13T12:31:37;101670.25;;;23.57;51.07
79791;BME280;69278;52.220;5.172;2023-07-13T12:34:12;101674.75;;;23.97;50.24
79791;BME280;69278;52.220;5.172;2023-07-13T12:36:52;101681.78;;;23.98;51.41
79791;BME280;69278;52.220;5.172;2023-07-13T12:39:25;101666.25;;;23.94;49.41
79791;BME280;69278;52.220;5.172;2023-07-13T12:42:13;101639.94;;;23.89;48.88
79791;BME280;69278;52.220;5.172;2023-07-13T12:44:43;101679.97;;;24.18;49.55
79791;BME280;69278;52.220;5.172;2023-07-13T12:47:13;101669.84;;;24.47;48.66
79791;BME280;69278;52.220;5.172;2023-07-13T12:49:48;101672.56;;;24.73;48.49
79791;BME280;69278;52.220;5.172;2023-07-13T12:52:22;101648.25;;;23.94;48.79
79791;BME280;69278;52.220;5.172;2023-07-13T12:54:57;101682.47;;;24.07;49.51
79791;BME280;69278;52.220;5.172;2023-07-13T12:57:31;101676.66;;;24.29;48.18
79791;BME280;69278;52.220;5.172;2023-07-13T12:59:58;101688.91;;;24.38;47.99
79791;BME280;69278;52.220;5.172;2023-07-13T13:02:30;101638.06;;;23.76;49.54
79791;BME280;69278;52.220;5.172;2023-07-13T13:05:01;101695.72;;;24.15;50.25
79791;BME280;69278;52.220;5.172;2023-07-13T13:07:29;101702.38;;;24.65;49.66
79791;BME280;69278;52.220;5.172;2023-07-13T13:09:56;101694.50;;;25.02;48.45
79791;BME280;69278;52.220;5.172;2023-07-13T13:12:22;101694.94;;;24.99;48.61
79791;BME280;69278;52.220;5.172;2023-07-13T13:14:52;101690.59;;;24.92;48.40
79791;BME280;69278;52.220;5.172;2023-07-13T13:17:21;101646.63;;;24.98;48.44
79791;BME280;69278;52.220;5.172;2023-07-13T13:19:49;101702.69;;;25.53;47.74
79791;BME280;69278;52.220;5.172;2023-07-13T13:22:16;101692.28;;;25.63;46.39